Time;durP1;ratioP1;P1;durP2;ratioP2;P2;SDS_P1;SDS_P2;PMS_P1;PMS_P2;Temp;Humidity;BMP_temperature;BMP_pressure;BME280_temperature;BME280_humidity;BME280_pressure;Samples;Min_cycle;Max_cycle;Signal;HPM_P1;HPM_P2
2021/08/06 00:01:26;;;;;;;7.97;7.30;;;19.50;99.90;;;;;;5051560;28;20559;-53
2021/08/06 00:03:55;;;;;;;7.87;7.07;;;19.50;99.90;;;;;;5052007;28;20494;-53
2021/08/06 00:06:22;;;;;;;7.97;7.27;;;19.70;99.90;;;;;;5051781;28;20778;-53
2021/08/06 00:08:49;;;;;;;7.30;6.70;;;19.40;99.90;;;;;;5051497;28;20888;-53
2021/08/06 00:11:16;;;;;;;8.13;7.33;;;19.30;99.90;;;;;;5051974;28;20462;-53
2021/08/06 00:13:43;;;;;;;8.30;6.87;;;19.40;99.90;;;;;;5052045;28;20462;-53
2021/08/06 00:16:11;;;;;;;7.40;6.83;;;19.50;99.90;;;;;;5051779;28;20806;-52
2021/08/06 00:18:37;;;;;;;6.97;6.37;;;19.40;99.90;;;;;;5051238;28;20960;-52
2021/08/06 00:21:04;;;;;;;7.13;6.47;;;19.40;99.90;;;;;;5051770;28;20433;-53
2021/08/06 00:23:31;;;;;;;7.23;6.63;;;19.40;99.90;;;;;;5051573;28;20489;-52
2021/08/06 00:25:57;;;;;;;8.43;7.73;;;19.50;99.90;;;;;;5051604;28;20442;-52
2021/08/06 00:28:24;;;;;;;7.70;7.00;;;19.20;99.90;;;;;;5051570;28;20435;-53
2021/08/06 00:30:50;;;;;;;6.53;5.93;;;19.50;99.90;;;;;;5033847;28;20450;-53
2021/08/06 00:33:19;;;;;;;7.33;6.63;;;19.30;99.90;;;;;;5033345;28;20473;-53
2021/08/06 00:35:48;;;;;;;9.00;6.40;;;19.30;99.90;;;;;;5033754;28;20449;-52
2021/08/06 00:38:15;;;;;;;7.70;7.10;;;19.30;99.90;;;;;;5033347;28;20658;-53
2021/08/06 00:40:43;;;;;;;7.57;6.87;;;19.50;99.90;;;;;;5033601;28;20449;-53
2021/08/06 00:43:15;;;;;;;6.50;6.00;;;19.20;99.90;;;;;;5033498;28;21034;-52
2021/08/06 00:45:44;;;;;;;7.17;6.47;;;19.30;99.90;;;;;;5033664;28;20799;-53
2021/08/06 00:48:14;;;;;;;7.97;7.17;;;19.50;99.90;;;;;;5050987;28;20467;-53
2021/08/06 00:50:43;;;;;;;6.90;6.30;;;19.50;99.90;;;;;;5033565;28;20486;-52
2021/08/06 00:53:13;;;;;;;7.40;6.70;;;19.50;99.90;;;;;;5033546;28;20520;-53
2021/08/06 00:55:45;;;;;;;7.40;6.70;;;19.30;99.90;;;;;;5033572;28;20889;-53
2021/08/06 00:58:18;;;;;;;6.93;6.43;;;19.40;99.90;;;;;;5033029;28;20451;-53
2021/08/06 01:00:48;;;;;;;8.40;7.63;;;19.30;99.90;;;;;;5033371;28;20548;-52
2021/08/06 01:03:21;;;;;;;8.10;7.10;;;19.40;99.90;;;;;;5033043;28;21014;-52
2021/08/06 01:05:59;;;;;;;7.70;7.07;;;19.20;99.90;;;;;;5033363;28;21019;-52
2021/08/06 01:08:35;;;;;;;7.97;6.67;;;19.40;99.90;;;;;;5050981;28;20878;-53
2021/08/06 01:11:05;;;;;;;8.33;7.63;;;19.40;99.90;;;;;;5033299;28;20513;-53
2021/08/06 01:13:43;;;;;;;7.70;7.10;;;19.40;99.90;;;;;;5033247;28;20465;-53
2021/08/06 01:16:12;;;;;;;7.60;7.00;;;19.40;99.90;;;;;;5033315;28;20822;-53
2021/08/06 01:18:50;;;;;;;7.17;6.60;;;19.40;99.90;;;;;;5032869;28;20473;-53
2021/08/06 01:21:20;;;;;;;6.83;6.23;;;19.20;99.90;;;;;;5033315;28;20461;-53
2021/08/06 01:23:48;;;;;;;7.53;6.80;;;19.40;99.90;;;;;;5033065;28;20489;-51
2021/08/06 01:26:20;;;;;;;7.70;6.70;;;19.20;99.90;;;;;;5033281;28;20500;-51
2021/08/06 01:28:56;;;;;;;7.13;6.53;;;19.50;99.90;;;;;;5032828;28;20993;-51
2021/08/06 01:31:27;;;;;;;7.07;6.57;;;19.20;99.90;;;;;;5033230;28;20469;-52
2021/08/06 01:34:00;;;;;;;7.43;6.73;;;19.50;99.90;;;;;;5032942;28;20449;-53
2021/08/06 01:36:29;;;;;;;7.60;6.70;;;19.80;99.90;;;;;;5033044;28;20450;-52
2021/08/06 01:38:59;;;;;;;9.40;7.20;;;19.40;99.90;;;;;;5032747;28;20483;-53
2021/08/06 01:41:38;;;;;;;7.97;6.57;;;19.40;99.90;;;;;;5032933;28;20447;-52
2021/08/06 01:44:11;;;;;;;7.63;6.73;;;19.40;99.90;;;;;;5032969;28;21002;-52
2021/08/06 01:46:43;;;;;;;7.77;7.07;;;19.50;99.90;;;;;;5035431;28;21023;-52
2021/08/06 01:49:14;;;;;;;10.90;7.73;;;19.40;99.90;;;;;;5036224;28;20485;-52
2021/08/06 01:51:44;;;;;;;9.63;7.20;;;19.40;99.90;;;;;;5054448;28;20438;-52
2021/08/06 01:54:13;;;;;;;9.37;7.43;;;19.40;99.90;;;;;;5036601;28;20485;-52
2021/08/06 01:56:42;;;;;;;8.40;7.70;;;19.40;99.90;;;;;;5036450;28;21035;-53
2021/08/06 01:59:10;;;;;;;7.90;7.20;;;19.30;99.90;;;;;;5036087;28;20458;-52
2021/08/06 02:01:43;;;;;;;7.90;6.60;;;19.40;99.90;;;;;;5036113;28;20450;-54
2021/08/06 02:04:14;;;;;;;8.30;7.20;;;19.30;99.90;;;;;;5036242;28;20895;-53
2021/08/06 02:06:48;;;;;;;6.37;5.77;;;19.40;99.90;;;;;;5036409;28;20449;-54
2021/08/06 02:09:23;;;;;;;7.83;7.13;;;19.40;99.90;;;;;;5035801;28;21029;-53
2021/08/06 02:11:53;;;;;;;7.10;6.40;;;19.40;99.90;;;;;;5036511;28;20826;-53
2021/08/06 02:14:26;;;;;;;7.50;6.80;;;19.40;99.90;;;;;;5036069;28;20473;-53
2021/08/06 02:16:55;;;;;;;8.60;7.03;;;19.40;99.90;;;;;;5036097;28;20489;-54
2021/08/06 02:19:33;;;;;;;7.40;6.83;;;19.40;99.90;;;;;;5035713;28;20489;-54
2021/08/06 02:22:09;;;;;;;7.57;6.97;;;19.30;99.90;;;;;;5035965;28;20473;-54
2021/08/06 02:24:41;;;;;;;7.80;6.53;;;19.30;99.90;;;;;;5035898;28;20865;-53
2021/08/06 02:27:13;;;;;;;7.83;7.10;;;19.30;99.90;;;;;;5035792;28;20934;-54
2021/08/06 02:29:42;;;;;;;7.83;7.03;;;19.30;99.90;;;;;;5035220;28;20883;-53
2021/08/06 02:32:14;;;;;;;8.60;7.90;;;18.90;99.90;;;;;;5052223;28;20535;-53
2021/08/06 02:34:41;;;;;;;7.47;6.60;;;19.40;99.90;;;;;;5035526;28;20453;-54
2021/08/06 02:37:08;;;;;;;7.40;6.80;;;19.40;99.90;;;;;;5053711;28;20805;-54
2021/08/06 02:39:35;;;;;;;7.57;6.87;;;19.40;99.90;;;;;;5035375;28;20449;-53
2021/08/06 02:42:04;;;;;;;7.77;7.10;;;19.30;99.90;;;;;;5053299;28;20457;-54
2021/08/06 02:44:34;;;;;;;9.63;7.00;;;19.30;99.90;;;;;;5053252;28;20488;-53
2021/08/06 02:47:01;;;;;;;8.33;7.63;;;19.30;99.90;;;;;;5053511;28;20433;-54
2021/08/06 02:49:31;;;;;;;8.20;7.50;;;19.30;99.90;;;;;;5035103;28;20450;-54
2021/08/06 02:51:58;;;;;;;9.23;7.90;;;19.30;99.90;;;;;;5035374;28;20473;-52
2021/08/06 02:54:25;;;;;;;7.50;6.80;;;19.20;99.90;;;;;;5035313;28;20454;-52
2021/08/06 02:56:52;;;;;;;7.23;6.63;;;19.30;99.90;;;;;;5053157;28;20459;-52
2021/08/06 02:59:19;;;;;;;6.80;6.30;;;19.30;99.90;;;;;;5034799;28;20474;-52
2021/08/06 03:01:47;;;;;;;7.57;6.97;;;19.30;99.90;;;;;;5035091;28;20477;-52
2021/08/06 03:04:14;;;;;;;7.90;7.20;;;19.20;99.90;;;;;;5035063;28;20573;-52
2021/08/06 03:06:41;;;;;;;8.20;7.50;;;19.20;99.90;;;;;;5035370;28;20969;-52
2021/08/06 03:09:08;;;;;;;8.00;7.30;;;19.20;99.90;;;;;;5035001;28;20957;-52
2021/08/06 03:11:35;;;;;;;9.20;8.40;;;19.20;99.90;;;;;;5034887;28;20450;-52
2021/08/06 03:14:03;;;;;;;8.20;7.40;;;19.20;99.90;;;;;;5034915;28;20453;-52
2021/08/06 03:16:30;;;;;;;8.03;7.33;;;19.20;99.90;;;;;;5034878;28;20947;-52
2021/08/06 03:18:59;;;;;;;8.10;7.40;;;19.20;99.90;;;;;;5034470;28;20449;-52
2021/08/06 03:21:26;;;;;;;8.93;7.70;;;19.20;99.90;;;;;;5034568;28;20875;-52
2021/08/06 03:23:53;;;;;;;9.60;8.60;;;19.20;99.90;;;;;;5034684;28;20564;-52
2021/08/06 03:26:19;;;;;;;8.07;7.37;;;19.20;99.90;;;;;;5034661;28;20453;-52
2021/08/06 03:28:48;;;;;;;9.17;8.37;;;19.20;99.90;;;;;;5034289;28;20898;-52
2021/08/06 03:31:14;;;;;;;9.67;7.67;;;19.20;99.90;;;;;;5034620;28;20441;-52
2021/08/06 03:33:41;;;;;;;8.20;7.50;;;19.30;99.90;;;;;;5034549;28;21055;-52
2021/08/06 03:36:12;;;;;;;10.70;7.13;;;19.30;99.90;;;;;;5034526;28;20449;-52
2021/08/06 03:38:40;;;;;;;9.33;8.40;;;19.30;99.90;;;;;;5034164;28;20442;-52
2021/08/06 03:41:06;;;;;;;8.97;8.17;;;19.30;99.90;;;;;;5034095;28;20493;-52
2021/08/06 03:43:33;;;;;;;8.60;7.83;;;19.20;99.90;;;;;;5033982;28;20482;-52
2021/08/06 03:46:00;;;;;;;9.13;8.30;;;19.30;99.90;;;;;;5052115;28;20425;-53
2021/08/06 03:48:26;;;;;;;9.20;8.30;;;19.30;99.90;;;;;;5033890;28;20553;-53
2021/08/06 03:50:55;;;;;;;10.67;8.10;;;19.30;99.90;;;;;;5034073;28;20460;-53
2021/08/06 03:53:24;;;;;;;9.50;8.63;;;19.20;99.90;;;;;;5034090;28;21015;-53
2021/08/06 03:55:51;;;;;;;9.80;8.63;;;19.20;99.90;;;;;;5034254;28;20485;-52
2021/08/06 03:58:21;;;;;;;11.00;9.40;;;19.20;99.90;;;;;;5033561;28;20461;-53
2021/08/06 04:00:47;;;;;;;10.07;9.27;;;19.30;99.90;;;;;;5034164;28;20773;-54
2021/08/06 04:03:14;;;;;;;9.67;8.77;;;19.30;99.90;;;;;;5051729;28;20490;-53
2021/08/06 04:05:41;;;;;;;10.63;8.43;;;19.30;99.90;;;;;;5033946;28;20508;-53
2021/08/06 04:08:10;;;;;;;9.67;8.80;;;19.30;99.90;;;;;;5033052;28;20799;-54
2021/08/06 04:10:42;;;;;;;11.53;8.97;;;19.30;99.90;;;;;;5052045;28;20510;-53
2021/08/06 04:13:10;;;;;;;11.73;8.70;;;19.40;99.90;;;;;;5051618;28;20503;-53
2021/08/06 04:15:37;;;;;;;10.83;8.57;;;19.40;99.90;;;;;;5033687;28;20457;-52
2021/08/06 04:18:03;;;;;;;9.63;8.63;;;19.40;99.90;;;;;;5051754;28;20804;-53
2021/08/06 04:20:31;;;;;;;10.93;8.43;;;19.40;99.90;;;;;;5033340;28;20461;-53
2021/08/06 04:22:57;;;;;;;11.80;8.60;;;19.40;99.90;;;;;;5051258;28;20966;-53
2021/08/06 04:25:25;;;;;;;10.70;9.43;;;19.30;99.90;;;;;;5033621;28;20449;-54
2021/08/06 04:27:53;;;;;;;9.80;9.07;;;19.30;99.90;;;;;;5033722;28;20836;-53
2021/08/06 04:30:20;;;;;;;7.90;7.20;;;19.30;99.90;;;;;;5051199;28;20511;-52
2021/08/06 04:32:47;;;;;;;9.40;8.57;;;19.30;99.90;;;;;;5033386;28;20541;-52
2021/08/06 04:35:13;;;;;;;13.70;9.90;;;19.30;99.90;;;;;;5033489;28;20445;-52
2021/08/06 04:37:49;;;;;;;10.70;9.80;;;19.30;99.90;;;;;;5033185;28;20460;-52
2021/08/06 04:40:16;;;;;;;11.63;9.60;;;19.30;99.90;;;;;;5033165;28;20444;-52
2021/08/06 04:42:44;;;;;;;11.33;10.23;;;19.30;99.90;;;;;;5033296;28;20527;-52
2021/08/06 04:45:13;;;;;;;11.87;10.00;;;19.30;99.90;;;;;;5051346;28;20508;-52
2021/08/06 04:47:45;;;;;;;13.80;9.17;;;19.30;99.90;;;;;;5033236;28;20947;-52
2021/08/06 04:50:13;;;;;;;10.17;8.70;;;19.30;99.90;;;;;;5050667;28;20453;-52
2021/08/06 04:52:40;;;;;;;10.40;9.30;;;19.30;99.90;;;;;;5033272;28;20973;-52
2021/08/06 04:55:08;;;;;;;10.00;8.83;;;19.30;99.90;;;;;;5033248;28;20442;-52
2021/08/06 04:57:36;;;;;;;11.10;10.10;;;19.30;99.90;;;;;;5033086;28;20905;-52
2021/08/06 05:00:03;;;;;;;12.63;10.27;;;19.30;99.90;;;;;;5032633;28;20963;-52
2021/08/06 05:02:31;;;;;;;12.77;11.03;;;19.30;99.90;;;;;;5033851;28;20878;-52
2021/08/06 05:04:58;;;;;;;11.87;10.40;;;19.30;99.90;;;;;;5051053;28;20483;-52
2021/08/06 05:07:25;;;;;;;11.30;9.83;;;19.40;99.90;;;;;;5051111;28;20441;-52
2021/08/06 05:09:51;;;;;;;10.60;9.50;;;19.40;99.90;;;;;;5032880;28;20487;-52
2021/08/06 05:12:18;;;;;;;11.13;9.90;;;19.40;99.90;;;;;;5051013;28;20461;-54
2021/08/06 05:14:46;;;;;;;12.43;9.93;;;19.40;99.90;;;;;;5033102;28;20705;-54
2021/08/06 05:17:13;;;;;;;10.63;9.83;;;19.40;99.90;;;;;;5051015;28;20738;-54
2021/08/06 05:19:42;;;;;;;11.80;10.70;;;19.50;99.90;;;;;;5050570;28;20451;-54
2021/08/06 05:22:10;;;;;;;15.03;9.90;;;19.50;99.90;;;;;;5035892;28;20463;-54
2021/08/06 05:24:37;;;;;;;12.53;11.17;;;19.50;99.90;;;;;;5054758;28;20481;-54
2021/08/06 05:27:04;;;;;;;13.70;10.57;;;19.50;99.90;;;;;;5054621;28;20432;-55
2021/08/06 05:29:31;;;;;;;11.73;10.60;;;19.50;99.90;;;;;;5035956;28;20463;-55
2021/08/06 05:31:58;;;;;;;12.33;9.27;;;19.50;99.90;;;;;;5036342;28;20484;-55
2021/08/06 05:34:25;;;;;;;11.77;9.93;;;19.50;99.90;;;;;;5054524;28;20514;-54
2021/08/06 05:36:54;;;;;;;12.87;10.80;;;19.60;99.90;;;;;;5036467;28;20450;-55
2021/08/06 05:39:20;;;;;;;9.53;8.63;;;19.60;99.90;;;;;;5036090;28;20458;-54
2021/08/06 05:41:48;;;;;;;13.20;10.90;;;19.60;99.90;;;;;;5035953;28;20473;-55
2021/08/06 05:44:17;;;;;;;12.03;11.07;;;19.60;99.90;;;;;;5036022;28;21001;-54
2021/08/06 05:46:44;;;;;;;12.57;11.30;;;19.60;99.90;;;;;;5036094;28;20435;-54
2021/08/06 05:49:11;;;;;;;12.50;11.30;;;19.60;99.90;;;;;;5035476;28;20815;-55
2021/08/06 05:51:38;;;;;;;11.77;10.57;;;19.70;99.90;;;;;;5036141;28;20533;-53
2021/08/06 05:54:06;;;;;;;11.87;10.67;;;19.70;99.90;;;;;;5035999;28;20462;-54
2021/08/06 05:56:34;;;;;;;13.53;12.13;;;19.70;99.90;;;;;;5036160;28;20449;-54
2021/08/06 05:59:00;;;;;;;12.33;11.20;;;19.80;99.90;;;;;;5035651;28;20450;-55
2021/08/06 06:01:27;;;;;;;13.70;10.80;;;19.80;99.90;;;;;;5053854;28;20431;-53
2021/08/06 06:04:09;;;;;;;13.03;11.70;;;19.80;99.90;;;;;;5036690;28;20479;-54
2021/08/06 06:06:58;;;;;;;11.70;10.63;;;19.80;99.90;;;;;;5052143;28;20556;-54
2021/08/06 06:09:26;;;;;;;14.90;10.23;;;19.80;99.90;;;;;;5035224;28;20518;-54
2021/08/06 06:11:53;;;;;;;11.30;10.20;;;19.80;99.90;;;;;;5053372;28;20512;-54
2021/08/06 06:14:20;;;;;;;15.80;11.30;;;19.90;99.90;;;;;;5035542;28;20453;-53
2021/08/06 06:16:47;;;;;;;13.07;10.93;;;19.90;99.90;;;;;;5053272;28;20454;-54
2021/08/06 06:19:15;;;;;;;13.67;12.13;;;19.90;99.90;;;;;;5035178;28;20461;-54
2021/08/06 06:21:43;;;;;;;13.00;11.80;;;20.00;99.90;;;;;;5035249;28;20542;-54
2021/08/06 06:24:09;;;;;;;14.40;13.00;;;20.00;99.90;;;;;;5034681;28;20485;-54
2021/08/06 06:26:38;;;;;;;18.27;11.40;;;20.10;99.90;;;;;;5052919;28;20512;-53
2021/08/06 06:29:04;;;;;;;16.73;14.70;;;20.10;99.90;;;;;;5034877;28;20557;-54
2021/08/06 06:31:34;;;;;;;18.73;12.53;;;20.20;99.90;;;;;;5034582;28;20442;-54
2021/08/06 06:34:01;;;;;;;13.57;11.73;;;20.20;99.90;;;;;;5035180;28;20493;-53
2021/08/06 06:36:29;;;;;;;12.33;11.00;;;20.30;99.90;;;;;;5035046;28;20931;-54
2021/08/06 06:38:58;;;;;;;12.73;10.37;;;20.30;99.90;;;;;;5034772;28;20455;-54
2021/08/06 06:41:25;;;;;;;12.03;10.30;;;20.40;99.90;;;;;;5034792;28;20892;-54
2021/08/06 06:44:05;;;;;;;14.00;10.93;;;20.50;99.90;;;;;;5034761;28;20474;-53
2021/08/06 06:46:32;;;;;;;10.80;9.80;;;20.50;99.90;;;;;;5034569;28;21018;-54
2021/08/06 06:48:59;;;;;;;12.23;11.23;;;20.60;99.90;;;;;;5052476;28;20439;-55
2021/08/06 06:51:25;;;;;;;10.67;9.67;;;20.60;99.90;;;;;;5052973;28;20485;-54
2021/08/06 06:53:52;;;;;;;11.00;9.90;;;20.70;99.90;;;;;;5052765;28;20436;-54
2021/08/06 06:56:19;;;;;;;11.03;9.90;;;20.80;99.90;;;;;;5034857;28;20518;-55
2021/08/06 06:58:46;;;;;;;11.67;10.57;;;20.90;99.90;;;;;;5034712;28;20444;-56
2021/08/06 07:01:17;;;;;;;12.57;10.80;;;21.00;99.90;;;;;;5034202;28;20471;-54
2021/08/06 07:03:44;;;;;;;12.47;10.50;;;21.10;99.90;;;;;;5052289;28;20819;-53
2021/08/06 07:06:11;;;;;;;10.37;9.33;;;21.20;99.90;;;;;;5034281;28;20521;-54
2021/08/06 07:08:39;;;;;;;10.70;9.70;;;21.30;99.90;;;;;;5034301;28;20456;-54
2021/08/06 07:11:06;;;;;;;10.97;10.07;;;21.40;99.90;;;;;;5052328;28;20509;-54
2021/08/06 07:13:34;;;;;;;12.53;11.03;;;21.40;99.90;;;;;;5034042;28;20547;-54
2021/08/06 07:16:01;;;;;;;18.63;11.33;;;21.50;99.90;;;;;;5034257;28;20457;-53
2021/08/06 07:18:30;;;;;;;12.40;11.40;;;21.60;99.90;;;;;;5033780;28;20456;-53
2021/08/06 07:20:59;;;;;;;12.27;11.17;;;21.70;99.90;;;;;;5034212;28;20448;-55
2021/08/06 07:23:26;;;;;;;9.23;8.53;;;21.70;99.90;;;;;;5033883;28;20887;-53
2021/08/06 07:25:53;;;;;;;10.70;9.60;;;21.80;99.90;;;;;;5033940;28;20559;-53
2021/08/06 07:28:19;;;;;;;11.97;9.33;;;21.90;99.90;;;;;;5033720;28;21054;-54
2021/08/06 07:30:46;;;;;;;11.13;8.40;;;22.00;99.90;;;;;;5034235;28;20506;-54
2021/08/06 07:33:13;;;;;;;8.43;7.73;;;22.10;99.90;;;;;;5033864;28;20881;-55
2021/08/06 07:35:41;;;;;;;10.37;8.40;;;22.10;99.90;;;;;;5052083;28;21024;-55
2021/08/06 07:38:08;;;;;;;8.80;7.43;;;22.20;99.90;;;;;;5051659;28;20441;-53
2021/08/06 07:40:36;;;;;;;8.90;7.97;;;22.30;99.90;;;;;;5034163;28;21083;-53
2021/08/06 07:43:04;;;;;;;8.43;7.63;;;22.50;99.60;;;;;;5033542;28;20505;-53
2021/08/06 07:45:31;;;;;;;8.00;7.30;;;22.50;99.20;;;;;;5033725;28;20508;-53
2021/08/06 07:47:58;;;;;;;11.23;7.17;;;22.60;99.00;;;;;;5051910;28;20438;-53
2021/08/06 07:50:24;;;;;;;8.20;7.40;;;22.60;98.80;;;;;;5033781;28;20579;-53
2021/08/06 07:52:52;;;;;;;7.23;6.47;;;22.70;97.90;;;;;;5033596;28;20574;-53
2021/08/06 07:55:19;;;;;;;7.13;6.37;;;22.70;97.70;;;;;;5033721;28;20454;-53
2021/08/06 07:57:48;;;;;;;8.30;6.03;;;22.90;97.50;;;;;;5033477;28;20606;-53
2021/08/06 08:00:15;;;;;;;5.50;5.00;;;23.00;97.00;;;;;;5033192;28;20459;-53
2021/08/06 08:02:47;;;;;;;7.27;5.13;;;23.00;96.40;;;;;;5033227;28;20540;-53
2021/08/06 08:05:21;;;;;;;4.87;4.47;;;23.10;96.00;;;;;;5033106;28;20474;-53
2021/08/06 08:07:49;;;;;;;5.10;4.60;;;23.30;95.80;;;;;;5033403;28;20943;-53
2021/08/06 08:10:17;;;;;;;5.60;4.90;;;23.30;95.00;;;;;;5051099;28;20446;-52
2021/08/06 08:12:44;;;;;;;5.53;4.93;;;23.40;94.80;;;;;;5051043;28;20541;-52
2021/08/06 08:15:11;;;;;;;5.37;4.87;;;23.50;95.00;;;;;;5051331;28;20416;-52
2021/08/06 08:17:38;;;;;;;5.90;5.37;;;23.60;94.50;;;;;;5032922;28;20451;-53
2021/08/06 08:20:07;;;;;;;8.00;5.67;;;23.50;94.40;;;;;;5032708;28;20457;-53
2021/08/06 08:22:34;;;;;;;6.20;5.60;;;23.60;94.50;;;;;;5033022;28;20467;-53
2021/08/06 08:25:01;;;;;;;9.30;5.80;;;23.70;94.50;;;;;;5033043;28;20473;-51
2021/08/06 08:27:30;;;;;;;8.50;6.07;;;23.70;94.40;;;;;;5033295;28;20961;-53
2021/08/06 08:30:00;;;;;;;8.50;7.00;;;23.80;94.40;;;;;;5032516;28;20543;-53
2021/08/06 08:32:26;;;;;;;7.00;5.47;;;23.80;94.20;;;;;;5050780;28;20461;-52
2021/08/06 08:34:54;;;;;;;7.50;5.93;;;23.90;94.10;;;;;;5032933;28;20785;-52
2021/08/06 08:37:20;;;;;;;8.10;5.47;;;23.80;93.20;;;;;;5033033;28;20462;-53
2021/08/06 08:39:47;;;;;;;5.27;4.77;;;23.90;93.40;;;;;;5032705;28;20572;-52
2021/08/06 08:42:15;;;;;;;5.53;5.03;;;23.90;93.30;;;;;;5032409;28;20567;-52
2021/08/06 08:44:44;;;;;;;6.43;5.83;;;23.80;92.90;;;;;;5032338;28;20530;-53
2021/08/06 08:47:11;;;;;;;4.93;4.53;;;23.80;92.40;;;;;;5032802;28;20508;-52
2021/08/06 08:49:38;;;;;;;5.50;4.63;;;23.70;91.80;;;;;;5032747;28;20469;-52
2021/08/06 08:52:06;;;;;;;6.40;5.20;;;23.70;91.60;;;;;;5050642;28;20862;-52
2021/08/06 08:54:32;;;;;;;5.90;4.57;;;23.60;92.00;;;;;;5033470;28;20474;-53
2021/08/06 08:56:59;;;;;;;6.23;4.80;;;23.60;91.90;;;;;;5054959;28;21091;-53
2021/08/06 08:59:26;;;;;;;5.90;5.30;;;23.50;91.80;;;;;;5036470;28;20491;-53
2021/08/06 09:01:54;;;;;;;4.93;4.53;;;23.40;91.40;;;;;;5036909;28;20531;-53
2021/08/06 09:04:23;;;;;;;3.67;2.80;;;23.40;91.40;;;;;;5054834;28;20428;-52
2021/08/06 09:06:52;;;;;;;10.50;4.43;;;23.40;90.50;;;;;;5036738;28;20475;-53
2021/08/06 09:09:29;;;;;;;4.90;4.43;;;23.40;90.70;;;;;;5036485;28;20953;-52
2021/08/06 09:12:13;;;;;;;5.10;4.60;;;23.30;91.00;;;;;;5036385;28;20473;-52
2021/08/06 09:15:01;;;;;;;4.67;4.10;;;23.30;90.40;;;;;;5054128;28;20445;-52
2021/08/06 09:17:37;;;;;;;4.80;3.80;;;23.30;89.60;;;;;;5054291;28;20433;-52
2021/08/06 09:20:07;;;;;;;9.20;4.83;;;23.40;90.00;;;;;;5054146;28;20436;-52
2021/08/06 09:22:40;;;;;;;8.30;4.40;;;23.30;89.80;;;;;;5036299;28;20983;-52
2021/08/06 09:25:13;;;;;;;6.03;3.60;;;23.40;89.50;;;;;;5054329;28;20485;-53
2021/08/06 09:27:44;;;;;;;5.77;3.40;;;23.40;88.20;;;;;;5036087;28;20496;-53
2021/08/06 09:30:15;;;;;;;5.80;4.00;;;23.40;87.60;;;;;;5053794;28;20958;-53
2021/08/06 09:32:49;;;;;;;4.00;3.40;;;23.40;86.70;;;;;;5054263;28;20454;-52
2021/08/06 09:35:16;;;;;;;4.00;3.70;;;23.40;86.90;;;;;;5054284;28;20454;-53
2021/08/06 09:37:43;;;;;;;4.80;3.90;;;23.30;86.90;;;;;;5054011;28;20443;-53
2021/08/06 09:40:14;;;;;;;5.23;4.30;;;23.30;86.50;;;;;;5053705;28;20452;-53
2021/08/06 09:42:48;;;;;;;5.83;4.27;;;23.40;86.60;;;;;;5053740;28;20460;-53
2021/08/06 09:45:16;;;;;;;4.27;3.97;;;23.40;87.30;;;;;;5035838;28;20467;-53
2021/08/06 09:47:54;;;;;;;5.20;4.77;;;23.40;87.60;;;;;;5053989;28;20549;-53
2021/08/06 09:50:22;;;;;;;5.40;4.50;;;23.40;88.00;;;;;;5053712;28;20437;-53
2021/08/06 09:52:51;;;;;;;5.13;3.70;;;23.40;88.10;;;;;;5053586;28;20986;-53
2021/08/06 09:55:21;;;;;;;9.10;3.70;;;23.40;87.80;;;;;;5053593;28;20549;-53
2021/08/06 09:57:47;;;;;;;4.30;3.90;;;23.50;87.10;;;;;;5053185;28;20757;-53
2021/08/06 10:00:16;;;;;;;4.60;4.00;;;23.50;86.90;;;;;;5053235;28;20522;-54
2021/08/06 10:02:43;;;;;;;7.20;3.73;;;23.50;86.60;;;;;;5053230;28;20469;-53
2021/08/06 10:05:13;;;;;;;3.50;3.20;;;23.50;85.50;;;;;;5053341;28;20560;-53
2021/08/06 10:07:41;;;;;;;4.40;3.67;;;23.50;84.80;;;;;;5052530;28;20531;-54
2021/08/06 10:10:11;;;;;;;7.23;3.33;;;23.50;83.90;;;;;;5053100;28;20936;-53
2021/08/06 10:12:38;;;;;;;3.43;2.80;;;23.60;83.10;;;;;;5053344;28;20549;-53
2021/08/06 10:15:06;;;;;;;3.17;2.87;;;23.60;82.50;;;;;;5053457;28;20440;-53
2021/08/06 10:17:33;;;;;;;3.40;3.00;;;23.60;81.70;;;;;;5053504;28;20433;-53
2021/08/06 10:19:59;;;;;;;4.40;3.10;;;23.70;81.20;;;;;;5053256;28;20459;-53
2021/08/06 10:22:28;;;;;;;3.30;2.73;;;23.70;80.60;;;;;;5052895;28;20461;-53
2021/08/06 10:24:55;;;;;;;9.13;3.30;;;23.80;80.40;;;;;;5052791;28;20442;-53
2021/08/06 10:27:23;;;;;;;6.33;3.60;;;23.90;80.00;;;;;;5052952;28;20498;-54
2021/08/06 10:29:58;;;;;;;3.60;3.30;;;24.00;78.50;;;;;;5052427;28;20443;-54
2021/08/06 10:32:26;;;;;;;5.50;2.97;;;24.00;77.70;;;;;;5053023;28;20472;-53
2021/08/06 10:35:10;;;;;;;5.83;3.20;;;24.10;77.90;;;;;;5053316;28;20449;-53
2021/08/06 10:38:00;;;;;;;2.60;2.13;;;24.20;76.50;;;;;;5050508;28;20461;-56
2021/08/06 10:44:04;;;;;;;4.07;3.10;;;24.30;76.60;;;;;;5046961;28;20620;-52
2021/08/06 10:46:57;;;;;;;4.10;3.00;;;24.50;75.20;;;;;;5052660;28;20568;-52
2021/08/06 10:49:24;;;;;;;4.13;3.00;;;24.50;73.10;;;;;;5052825;28;20446;-53
2021/08/06 10:52:12;;;;;;;6.50;3.13;;;24.50;74.30;;;;;;5052654;28;20793;-53
2021/08/06 10:54:40;;;;;;;3.10;2.80;;;24.50;75.40;;;;;;5052230;28;20930;-52
2021/08/06 10:57:28;;;;;;;5.63;4.17;;;24.60;74.30;;;;;;5052517;28;20430;-53
2021/08/06 10:59:55;;;;;;;4.30;3.40;;;24.70;72.90;;;;;;5052006;28;20430;-53
2021/08/06 11:02:45;;;;;;;5.50;3.70;;;24.70;73.00;;;;;;5070300;22;20500;-52
2021/08/06 11:05:39;;;;;;;4.37;3.50;;;24.60;72.30;;;;;;5072279;28;20448;-53
2021/08/06 11:08:54;;;;;;;4.83;3.20;;;24.90;71.80;;;;;;5071543;28;20440;-53
2021/08/06 11:11:57;;;;;;;3.57;2.90;;;25.00;70.80;;;;;;5071668;28;20469;-51
2021/08/06 11:14:59;;;;;;;4.20;3.20;;;25.20;70.20;;;;;;5051722;28;21050;-52
2021/08/06 11:17:33;;;;;;;5.33;3.60;;;25.30;68.50;;;;;;5051604;28;20431;-52
2021/08/06 11:20:09;;;;;;;9.10;3.33;;;25.40;69.60;;;;;;5051075;28;20448;-53
2021/08/06 11:22:37;;;;;;;3.90;2.80;;;25.50;68.70;;;;;;5051350;28;20458;-52
2021/08/06 11:25:06;;;;;;;3.53;3.10;;;25.50;68.70;;;;;;5051368;28;20442;-53
2021/08/06 11:27:37;;;;;;;4.90;4.40;;;25.50;68.00;;;;;;5050942;28;20537;-52
2021/08/06 11:30:05;;;;;;;6.20;3.10;;;25.30;67.20;;;;;;5051735;28;20427;-52
2021/08/06 11:32:50;;;;;;;6.60;3.00;;;25.40;66.50;;;;;;5051319;28;20531;-53
2021/08/06 11:35:18;;;;;;;3.27;2.97;;;25.40;66.20;;;;;;5051813;28;20934;-53
2021/08/06 11:37:54;;;;;;;3.57;3.27;;;25.40;66.20;;;;;;5051650;28;20445;-52
2021/08/06 11:40:23;;;;;;;4.63;3.90;;;25.40;66.50;;;;;;5050695;28;20902;-53
2021/08/06 11:42:54;;;;;;;4.27;3.33;;;25.40;67.30;;;;;;5051448;28;20497;-52
2021/08/06 11:45:23;;;;;;;3.63;2.30;;;25.30;66.50;;;;;;5051219;28;20426;-52
2021/08/06 11:47:53;;;;;;;4.53;3.23;;;25.30;67.10;;;;;;5051201;28;20521;-53
2021/08/06 11:50:21;;;;;;;4.83;3.07;;;25.20;67.40;;;;;;5050744;28;20450;-53
2021/08/06 11:52:49;;;;;;;5.30;3.20;;;25.20;67.70;;;;;;5050379;28;20802;-54
2021/08/06 11:55:21;;;;;;;3.40;3.10;;;25.20;67.50;;;;;;5051031;28;20461;-53
2021/08/06 11:57:54;;;;;;;3.57;3.27;;;25.20;67.20;;;;;;5050817;28;20558;-52
2021/08/06 12:00:24;;;;;;;4.50;2.80;;;25.20;66.70;;;;;;5050554;28;20431;-52
2021/08/06 12:03:09;;;;;;;3.37;2.83;;;25.20;67.40;;;;;;5050920;28;20481;-52
2021/08/06 12:05:37;;;;;;;3.00;2.70;;;25.20;66.90;;;;;;5050629;28;20519;-52
2021/08/06 12:08:19;;;;;;;3.63;3.27;;;25.30;67.10;;;;;;5050749;28;20438;-50
2021/08/06 12:10:47;;;;;;;3.40;3.10;;;25.30;65.70;;;;;;5050741;28;20439;-53
2021/08/06 12:13:17;;;;;;;4.23;3.50;;;25.40;66.60;;;;;;5050214;28;20446;-51
2021/08/06 12:15:44;;;;;;;4.90;4.03;;;25.50;66.30;;;;;;5050573;28;20434;-51
2021/08/06 12:18:13;;;;;;;4.40;3.70;;;25.60;66.50;;;;;;5050540;28;20427;-52
2021/08/06 12:20:42;;;;;;;3.97;3.50;;;25.60;66.00;;;;;;5050669;28;20529;-53
2021/08/06 12:23:09;;;;;;;8.10;3.40;;;25.70;66.10;;;;;;5032688;28;20467;-52
2021/08/06 12:25:36;;;;;;;5.07;3.00;;;25.70;66.30;;;;;;5050351;28;20454;-52
2021/08/06 12:28:04;;;;;;;3.50;3.20;;;25.60;66.50;;;;;;5050668;28;20438;-53
2021/08/06 12:30:33;;;;;;;3.23;2.83;;;25.60;66.10;;;;;;5051815;28;20452;-52
2021/08/06 12:33:01;;;;;;;4.00;3.33;;;25.60;65.60;;;;;;5050313;28;20478;-52
2021/08/06 12:35:27;;;;;;;3.17;2.87;;;25.50;65.50;;;;;;5050357;28;20520;-53
2021/08/06 12:37:54;;;;;;;3.07;2.67;;;25.50;65.40;;;;;;5050470;28;20423;-51
2021/08/06 12:40:22;;;;;;;4.47;3.10;;;25.40;65.60;;;;;;5050420;28;20443;-57
2021/08/06 12:42:50;;;;;;;4.23;2.80;;;25.50;65.80;;;;;;5050561;28;20459;-51
2021/08/06 12:45:20;;;;;;;5.43;3.30;;;25.50;65.70;;;;;;5050549;28;20522;-52
2021/08/06 12:47:49;;;;;;;5.30;2.90;;;25.50;65.60;;;;;;5049823;28;20492;-52
2021/08/06 12:50:23;;;;;;;6.43;3.77;;;25.50;65.50;;;;;;5050191;28;20525;-52
2021/08/06 12:53:00;;;;;;;3.63;3.20;;;25.50;65.80;;;;;;5050202;28;20477;-52
2021/08/06 12:55:30;;;;;;;5.67;3.70;;;25.50;65.00;;;;;;5050206;28;20434;-52
2021/08/06 12:57:58;;;;;;;3.13;2.53;;;25.50;64.70;;;;;;5050443;28;20442;-52
2021/08/06 13:00:28;;;;;;;3.10;2.80;;;25.50;64.20;;;;;;5050151;28;20806;-52